sensor_id;sensor_type;location;lat;lon;timestamp;pressure;altitude;pressure_sealevel;temperature;humidity
20889;BME280;10604;51.976;7.594;2023-05-16T00:01:39;100826.13;;;14.85;68.90
20889;BME280;10604;51.976;7.594;2023-05-16T00:04:04;100820.69;;;14.88;68.70
20889;BME280;10604;51.976;7.594;2023-05-16T00:06:30;100822.81;;;14.80;69.08
20889;BME280;10604;51.976;7.594;2023-05-16T00:08:56;100819.13;;;14.84;69.15
20889;BME280;10604;51.976;7.594;2023-05-16T00:11:21;100829.88;;;14.81;69.21
20889;BME280;10604;51.976;7.594;2023-05-16T00:13:47;100832.00;;;14.73;69.36
20889;BME280;10604;51.976;7.594;2023-05-16T00:16:13;100831.53;;;14.44;70.56
20889;BME280;10604;51.976;7.594;2023-05-16T00:18:38;100831.13;;;14.33;71.78
20889;BME280;10604;51.976;7.594;2023-05-16T00:21:04;100829.91;;;14.61;71.33
20889;BME280;10604;51.976;7.594;2023-05-16T00:23:30;100839.38;;;14.47;71.96
20889;BME280;10604;51.976;7.594;2023-05-16T00:25:56;100836.03;;;14.42;72.74
20889;BME280;10604;51.976;7.594;2023-05-16T00:28:22;100842.31;;;14.41;73.09
20889;BME280;10604;51.976;7.594;2023-05-16T00:30:47;100836.81;;;14.24;73.41
20889;BME280;10604;51.976;7.594;2023-05-16T00:33:13;100834.63;;;14.34;73.58
20889;BME280;10604;51.976;7.594;2023-05-16T00:35:38;100837.56;;;14.48;74.07
20889;BME280;10604;51.976;7.594;2023-05-16T00:38:03;100836.72;;;14.47;73.83
20889;BME280;10604;51.976;7.594;2023-05-16T00:40:29;100840.94;;;14.52;74.32
20889;BME280;10604;51.976;7.594;2023-05-16T00:42:54;100838.69;;;14.42;74.78
20889;BME280;10604;51.976;7.594;2023-05-16T00:45:20;100842.72;;;14.10;75.48
20889;BME280;10604;51.976;7.594;2023-05-16T00:47:45;100836.34;;;13.94;76.56
20889;BME280;10604;51.976;7.594;2023-05-16T00:50:11;100835.63;;;13.91;77.39
20889;BME280;10604;51.976;7.594;2023-05-16T00:52:36;100836.13;;;13.79;78.03
20889;BME280;10604;51.976;7.594;2023-05-16T00:55:02;100839.56;;;13.81;78.55
20889;BME280;10604;51.976;7.594;2023-05-16T00:57:28;100841.03;;;13.88;79.18
20889;BME280;10604;51.976;7.594;2023-05-16T00:59:54;100841.22;;;14.05;78.71
20889;BME280;10604;51.976;7.594;2023-05-16T01:02:19;100854.63;;;13.58;79.50
20889;BME280;10604;51.976;7.594;2023-05-16T01:04:45;100842.34;;;13.36;80.16
20889;BME280;10604;51.976;7.594;2023-05-16T01:07:12;100844.13;;;13.35;80.50
20889;BME280;10604;51.976;7.594;2023-05-16T01:09:39;100859.56;;;13.24;80.46
20889;BME280;10604;51.976;7.594;2023-05-16T01:17:24;100859.06;;;13.14;81.12
20889;BME280;10604;51.976;7.594;2023-05-16T01:20:07;100857.03;;;12.98;81.95
20889;BME280;10604;51.976;7.594;2023-05-16T01:25:31;100846.09;;;12.83;81.83
20889;BME280;10604;51.976;7.594;2023-05-16T01:28:01;100861.50;;;12.72;82.00
20889;BME280;10604;51.976;7.594;2023-05-16T01:30:32;100869.91;;;12.83;81.71
20889;BME280;10604;51.976;7.594;2023-05-16T01:32:59;100872.91;;;12.74;82.01
20889;BME280;10604;51.976;7.594;2023-05-16T01:35:24;100875.78;;;12.68;81.89
20889;BME280;10604;51.976;7.594;2023-05-16T01:40:44;100877.97;;;12.57;82.33
20889;BME280;10604;51.976;7.594;2023-05-16T01:43:16;100887.84;;;12.75;81.25
20889;BME280;10604;51.976;7.594;2023-05-16T01:45:46;100888.41;;;12.60;81.00
20889;BME280;10604;51.976;7.594;2023-05-16T01:48:17;100895.97;;;12.46;80.80
20889;BME280;10604;51.976;7.594;2023-05-16T01:50:51;100890.78;;;12.68;80.67
20889;BME280;10604;51.976;7.594;2023-05-16T01:53:41;100892.38;;;12.72;80.57
20889;BME280;10604;51.976;7.594;2023-05-16T01:56:14;100896.38;;;12.83;80.30
20889;BME280;10604;51.976;7.594;2023-05-16T01:58:40;100894.59;;;12.84;80.47
20889;BME280;10604;51.976;7.594;2023-05-16T02:01:06;100903.84;;;12.72;80.30
20889;BME280;10604;51.976;7.594;2023-05-16T02:03:31;100902.69;;;12.56;80.68
20889;BME280;10604;51.976;7.594;2023-05-16T02:05:57;100917.50;;;12.60;80.78
20889;BME280;10604;51.976;7.594;2023-05-16T02:08:23;100923.50;;;12.65;80.34
20889;BME280;10604;51.976;7.594;2023-05-16T02:10:49;100921.91;;;12.61;80.25
20889;BME280;10604;51.976;7.594;2023-05-16T02:13:14;100916.28;;;12.70;79.77
20889;BME280;10604;51.976;7.594;2023-05-16T02:15:40;100910.75;;;12.76;79.63
20889;BME280;10604;51.976;7.594;2023-05-16T02:18:05;100914.44;;;12.72;79.09
20889;BME280;10604;51.976;7.594;2023-05-16T02:20:31;100926.22;;;12.64;79.47
20889;BME280;10604;51.976;7.594;2023-05-16T02:22:57;100915.25;;;12.49;80.11
20889;BME280;10604;51.976;7.594;2023-05-16T02:25:23;100920.22;;;12.59;79.94
20889;BME280;10604;51.976;7.594;2023-05-16T02:27:48;100921.66;;;12.67;79.48
20889;BME280;10604;51.976;7.594;2023-05-16T02:30:14;100918.75;;;12.75;78.29
20889;BME280;10604;51.976;7.594;2023-05-16T02:32:39;100921.66;;;12.67;79.08
20889;BME280;10604;51.976;7.594;2023-05-16T02:35:05;100925.38;;;12.63;78.79
20889;BME280;10604;51.976;7.594;2023-05-16T02:37:31;100921.81;;;12.64;78.86
20889;BME280;10604;51.976;7.594;2023-05-16T02:39:56;100933.13;;;12.68;78.90
20889;BME280;10604;51.976;7.594;2023-05-16T02:42:22;100935.88;;;12.40;79.15
20889;BME280;10604;51.976;7.594;2023-05-16T02:44:47;100942.69;;;12.47;79.04
20889;BME280;10604;51.976;7.594;2023-05-16T02:47:12;100936.22;;;12.29;79.06
20889;BME280;10604;51.976;7.594;2023-05-16T02:49:38;100945.16;;;12.51;78.70
20889;BME280;10604;51.976;7.594;2023-05-16T02:52:03;100948.56;;;12.55;78.94
20889;BME280;10604;51.976;7.594;2023-05-16T02:54:29;100955.59;;;12.56;77.99
20889;BME280;10604;51.976;7.594;2023-05-16T02:56:54;100950.09;;;12.62;77.83
20889;BME280;10604;51.976;7.594;2023-05-16T02:59:20;100954.13;;;12.72;77.31
20889;BME280;10604;51.976;7.594;2023-05-16T03:01:45;100959.47;;;12.46;77.56
20889;BME280;10604;51.976;7.594;2023-05-16T03:04:10;100960.69;;;12.62;77.19
20889;BME280;10604;51.976;7.594;2023-05-16T03:06:36;100962.63;;;12.04;77.09
20889;BME280;10604;51.976;7.594;2023-05-16T03:09:01;100966.31;;;12.00;77.97
20889;BME280;10604;51.976;7.594;2023-05-16T03:11:27;100972.72;;;12.20;77.44
20889;BME280;10604;51.976;7.594;2023-05-16T03:13:53;100976.19;;;12.22;76.88
20889;BME280;10604;51.976;7.594;2023-05-16T03:16:18;100983.69;;;12.07;76.54
20889;BME280;10604;51.976;7.594;2023-05-16T03:18:44;100995.69;;;12.18;76.93
20889;BME280;10604;51.976;7.594;2023-05-16T03:21:09;100981.84;;;12.09;76.90
20889;BME280;10604;51.976;7.594;2023-05-16T03:23:35;100996.50;;;12.20;77.29
20889;BME280;10604;51.976;7.594;2023-05-16T03:26:00;100988.47;;;12.23;76.14
20889;BME280;10604;51.976;7.594;2023-05-16T03:28:26;100994.34;;;12.04;75.97
20889;BME280;10604;51.976;7.594;2023-05-16T03:30:51;100997.81;;;12.06;76.07
20889;BME280;10604;51.976;7.594;2023-05-16T03:33:17;100996.28;;;11.99;76.69
20889;BME280;10604;51.976;7.594;2023-05-16T03:35:43;100998.31;;;11.91;76.70
20889;BME280;10604;51.976;7.594;2023-05-16T03:38:09;101002.06;;;11.84;76.28
20889;BME280;10604;51.976;7.594;2023-05-16T03:40:35;101012.03;;;11.74;76.78
20889;BME280;10604;51.976;7.594;2023-05-16T03:43:00;101002.06;;;11.84;76.20
20889;BME280;10604;51.976;7.594;2023-05-16T03:45:25;101012.03;;;11.73;76.05
20889;BME280;10604;51.976;7.594;2023-05-16T03:47:51;101012.91;;;11.75;76.19
20889;BME280;10604;51.976;7.594;2023-05-16T03:50:16;101012.97;;;11.72;75.90
20889;BME280;10604;51.976;7.594;2023-05-16T03:52:42;101025.81;;;11.55;76.16
20889;BME280;10604;51.976;7.594;2023-05-16T03:55:08;101014.56;;;11.79;75.84
20889;BME280;10604;51.976;7.594;2023-05-16T03:57:36;101027.59;;;11.54;75.84
20889;BME280;10604;51.976;7.594;2023-05-16T04:00:02;101019.66;;;11.54;76.06
20889;BME280;10604;51.976;7.594;2023-05-16T04:02:31;101028.31;;;11.59;76.13
20889;BME280;10604;51.976;7.594;2023-05-16T04:04:57;101031.63;;;11.66;75.29
20889;BME280;10604;51.976;7.594;2023-05-16T04:07:22;101027.44;;;11.59;75.06
20889;BME280;10604;51.976;7.594;2023-05-16T04:09:47;101036.19;;;11.61;75.29
20889;BME280;10604;51.976;7.594;2023-05-16T04:12:13;101030.72;;;11.67;74.79
20889;BME280;10604;51.976;7.594;2023-05-16T04:14:38;101036.38;;;11.55;75.05
20889;BME280;10604;51.976;7.594;2023-05-16T04:17:04;101043.91;;;11.68;74.57
20889;BME280;10604;51.976;7.594;2023-05-16T04:19:29;101040.97;;;11.79;74.35
20889;BME280;10604;51.976;7.594;2023-05-16T04:21:54;101052.22;;;11.55;74.45
20889;BME280;10604;51.976;7.594;2023-05-16T04:24:20;101045.59;;;11.40;74.67
20889;BME280;10604;51.976;7.594;2023-05-16T04:26:45;101049.88;;;11.44;74.99
20889;BME280;10604;51.976;7.594;2023-05-16T04:29:11;101051.50;;;11.50;74.97
20889;BME280;10604;51.976;7.594;2023-05-16T04:31:38;101064.50;;;11.87;74.38
20889;BME280;10604;51.976;7.594;2023-05-16T04:34:03;101063.81;;;11.80;74.09
20889;BME280;10604;51.976;7.594;2023-05-16T04:36:29;101077.69;;;11.88;73.70
20889;BME280;10604;51.976;7.594;2023-05-16T04:38:55;101075.78;;;11.93;73.85
20889;BME280;10604;51.976;7.594;2023-05-16T04:41:21;101073.75;;;12.01;73.49
20889;BME280;10604;51.976;7.594;2023-05-16T04:43:48;101079.00;;;12.03;73.35
20889;BME280;10604;51.976;7.594;2023-05-16T04:46:13;101080.50;;;12.11;73.72
20889;BME280;10604;51.976;7.594;2023-05-16T04:48:39;101082.03;;;12.19;73.37
20889;BME280;10604;51.976;7.594;2023-05-16T04:51:05;101085.41;;;12.24;72.65
20889;BME280;10604;51.976;7.594;2023-05-16T04:53:30;101088.28;;;12.16;73.04
20889;BME280;10604;51.976;7.594;2023-05-16T04:55:56;101088.03;;;12.24;72.42
20889;BME280;10604;51.976;7.594;2023-05-16T04:58:21;101090.31;;;12.36;72.44
20889;BME280;10604;51.976;7.594;2023-05-16T05:00:48;101085.31;;;12.27;72.47
20889;BME280;10604;51.976;7.594;2023-05-16T05:03:14;101096.38;;;12.39;71.88
20889;BME280;10604;51.976;7.594;2023-05-16T05:05:40;101092.03;;;12.37;71.14
20889;BME280;10604;51.976;7.594;2023-05-16T05:08:05;101100.72;;;12.14;71.15
20889;BME280;10604;51.976;7.594;2023-05-16T05:10:31;101094.25;;;12.23;71.56
20889;BME280;10604;51.976;7.594;2023-05-16T05:12:56;101097.16;;;12.43;70.85
20889;BME280;10604;51.976;7.594;2023-05-16T05:15:22;101097.75;;;12.51;70.77
20889;BME280;10604;51.976;7.594;2023-05-16T05:17:48;101100.41;;;12.51;70.77
20889;BME280;10604;51.976;7.594;2023-05-16T05:20:13;101103.34;;;12.42;70.43
20889;BME280;10604;51.976;7.594;2023-05-16T05:22:39;101111.09;;;12.48;70.74
20889;BME280;10604;51.976;7.594;2023-05-16T05:25:04;101108.75;;;12.65;70.84
20889;BME280;10604;51.976;7.594;2023-05-16T05:27:30;101114.44;;;12.53;70.71
20889;BME280;10604;51.976;7.594;2023-05-16T05:29:55;101121.28;;;12.60;70.31
20889;BME280;10604;51.976;7.594;2023-05-16T05:32:21;101129.06;;;12.65;70.24
20889;BME280;10604;51.976;7.594;2023-05-16T05:34:46;101123.22;;;12.55;69.92
20889;BME280;10604;51.976;7.594;2023-05-16T05:37:12;101127.28;;;12.65;69.31
20889;BME280;10604;51.976;7.594;2023-05-16T05:39:37;101124.34;;;12.74;69.69
20889;BME280;10604;51.976;7.594;2023-05-16T05:42:03;101133.59;;;12.87;68.69
20889;BME280;10604;51.976;7.594;2023-05-16T05:44:29;101139.50;;;12.95;68.76
20889;BME280;10604;51.976;7.594;2023-05-16T05:46:55;101135.75;;;13.03;68.23
20889;BME280;10604;51.976;7.594;2023-05-16T05:49:22;101145.41;;;13.30;67.86
20889;BME280;10604;51.976;7.594;2023-05-16T05:51:48;101147.69;;;13.16;67.47
20889;BME280;10604;51.976;7.594;2023-05-16T05:54:19;101152.97;;;13.16;67.38
20889;BME280;10604;51.976;7.594;2023-05-16T05:56:45;101154.41;;;13.26;67.67
20889;BME280;10604;51.976;7.594;2023-05-16T05:59:11;101155.03;;;13.57;66.74
20889;BME280;10604;51.976;7.594;2023-05-16T06:01:36;101155.28;;;13.51;65.82
20889;BME280;10604;51.976;7.594;2023-05-16T06:04:02;101156.53;;;13.41;66.04
20889;BME280;10604;51.976;7.594;2023-05-16T06:06:28;101157.13;;;13.49;65.33
20889;BME280;10604;51.976;7.594;2023-05-16T06:08:53;101153.66;;;13.47;64.65
20889;BME280;10604;51.976;7.594;2023-05-16T06:11:19;101152.22;;;13.87;65.53
20889;BME280;10604;51.976;7.594;2023-05-16T06:13:45;101152.66;;;13.99;64.56
20889;BME280;10604;51.976;7.594;2023-05-16T06:16:11;101167.59;;;13.52;64.65
20889;BME280;10604;51.976;7.594;2023-05-16T06:18:36;101161.66;;;13.70;64.62
20889;BME280;10604;51.976;7.594;2023-05-16T06:21:01;101172.69;;;13.58;64.44
20889;BME280;10604;51.976;7.594;2023-05-16T06:23:27;101167.16;;;13.64;64.21
20889;BME280;10604;51.976;7.594;2023-05-16T06:25:52;101163.38;;;13.71;64.29
20889;BME280;10604;51.976;7.594;2023-05-16T06:28:18;101170.91;;;13.84;62.45
20889;BME280;10604;51.976;7.594;2023-05-16T06:30:43;101174.97;;;13.44;62.47
20889;BME280;10604;51.976;7.594;2023-05-16T06:33:08;101173.78;;;13.78;63.56
20889;BME280;10604;51.976;7.594;2023-05-16T06:35:34;101182.75;;;13.73;63.47
20889;BME280;10604;51.976;7.594;2023-05-16T06:37:59;101177.34;;;13.77;62.55
20889;BME280;10604;51.976;7.594;2023-05-16T06:40:25;101176.06;;;13.63;61.33
20889;BME280;10604;51.976;7.594;2023-05-16T06:42:50;101180.13;;;13.97;61.39
20889;BME280;10604;51.976;7.594;2023-05-16T06:45:16;101181.06;;;14.19;61.35
20889;BME280;10604;51.976;7.594;2023-05-16T06:47:41;101188.28;;;13.67;61.20
20889;BME280;10604;51.976;7.594;2023-05-16T06:50:07;101175.28;;;13.85;61.68
20889;BME280;10604;51.976;7.594;2023-05-16T06:52:32;101170.22;;;14.25;59.99
20889;BME280;10604;51.976;7.594;2023-05-16T06:54:58;101164.22;;;14.43;59.61
20889;BME280;10604;51.976;7.594;2023-05-16T06:57:23;101161.16;;;14.54;58.24
20889;BME280;10604;51.976;7.594;2023-05-16T06:59:48;101175.38;;;14.28;58.06
20889;BME280;10604;51.976;7.594;2023-05-16T07:02:14;101168.81;;;14.62;58.24
20889;BME280;10604;51.976;7.594;2023-05-16T07:04:39;101170.31;;;14.69;57.80
20889;BME280;10604;51.976;7.594;2023-05-16T07:07:04;101179.28;;;14.43;56.55
20889;BME280;10604;51.976;7.594;2023-05-16T07:09:32;101165.47;;;14.57;55.70
20889;BME280;10604;51.976;7.594;2023-05-16T07:11:57;101180.31;;;14.84;55.67
20889;BME280;10604;51.976;7.594;2023-05-16T07:14:23;101185.50;;;15.49;55.01
20889;BME280;10604;51.976;7.594;2023-05-16T07:16:48;101186.16;;;15.56;53.95
20889;BME280;10604;51.976;7.594;2023-05-16T07:19:15;101188.16;;;15.29;53.37
20889;BME280;10604;51.976;7.594;2023-05-16T07:21:41;101182.78;;;15.51;51.75
20889;BME280;10604;51.976;7.594;2023-05-16T07:24:06;101180.50;;;15.42;51.41
20889;BME280;10604;51.976;7.594;2023-05-16T07:26:32;101186.63;;;15.44;52.19
20889;BME280;10604;51.976;7.594;2023-05-16T07:28:57;101195.72;;;15.80;49.91
20889;BME280;10604;51.976;7.594;2023-05-16T07:31:22;101189.84;;;15.52;49.95
20889;BME280;10604;51.976;7.594;2023-05-16T07:33:48;101197.88;;;15.50;51.37
20889;BME280;10604;51.976;7.594;2023-05-16T07:36:13;101198.13;;;15.66;50.82
20889;BME280;10604;51.976;7.594;2023-05-16T07:38:39;101194.75;;;16.01;50.17
20889;BME280;10604;51.976;7.594;2023-05-16T07:41:04;101193.69;;;16.43;48.81
20889;BME280;10604;51.976;7.594;2023-05-16T07:43:30;101191.63;;;16.87;47.59
20889;BME280;10604;51.976;7.594;2023-05-16T07:45:59;101189.03;;;16.86;46.42
20889;BME280;10604;51.976;7.594;2023-05-16T07:48:24;101194.06;;;16.17;46.87
20889;BME280;10604;51.976;7.594;2023-05-16T07:50:51;101206.06;;;15.86;47.94
20889;BME280;10604;51.976;7.594;2023-05-16T07:53:16;101206.38;;;15.60;47.20
20889;BME280;10604;51.976;7.594;2023-05-16T07:55:42;101202.69;;;16.03;47.12
20889;BME280;10604;51.976;7.594;2023-05-16T07:58:07;101191.28;;;16.38;47.08
20889;BME280;10604;51.976;7.594;2023-05-16T08:00:32;101203.38;;;17.19;45.04
20889;BME280;10604;51.976;7.594;2023-05-16T08:02:58;101211.25;;;17.74;43.79
20889;BME280;10604;51.976;7.594;2023-05-16T08:05:24;101206.22;;;17.33;43.39
20889;BME280;10604;51.976;7.594;2023-05-16T08:07:49;101207.97;;;17.69;42.43
20889;BME280;10604;51.976;7.594;2023-05-16T08:10:14;101208.53;;;17.91;44.13
20889;BME280;10604;51.976;7.594;2023-05-16T08:12:40;101211.38;;;17.36;45.50
20889;BME280;10604;51.976;7.594;2023-05-16T08:15:06;101207.88;;;17.00;45.59
20889;BME280;10604;51.976;7.594;2023-05-16T08:17:31;101211.13;;;16.88;46.34
20889;BME280;10604;51.976;7.594;2023-05-16T08:19:57;101202.84;;;16.19;46.12
20889;BME280;10604;51.976;7.594;2023-05-16T08:22:24;101208.25;;;16.36;45.72
20889;BME280;10604;51.976;7.594;2023-05-16T08:24:49;101191.69;;;15.50;46.56
20889;BME280;10604;51.976;7.594;2023-05-16T08:27:15;101214.88;;;15.88;47.45
20889;BME280;10604;51.976;7.594;2023-05-16T08:29:40;101214.34;;;15.60;46.55
20889;BME280;10604;51.976;7.594;2023-05-16T08:32:07;101213.84;;;17.05;46.37
20889;BME280;10604;51.976;7.594;2023-05-16T08:34:32;101210.44;;;17.54;42.63
20889;BME280;10604;51.976;7.594;2023-05-16T08:36:58;101206.13;;;17.86;43.17
20889;BME280;10604;51.976;7.594;2023-05-16T08:39:24;101195.41;;;18.36;42.88
20889;BME280;10604;51.976;7.594;2023-05-16T08:41:50;101208.88;;;17.85;42.61
20889;BME280;10604;51.976;7.594;2023-05-16T08:44:16;101205.59;;;17.80;43.08
20889;BME280;10604;51.976;7.594;2023-05-16T08:46:51;101210.94;;;17.80;42.88
20889;BME280;10604;51.976;7.594;2023-05-16T08:49:17;101221.31;;;17.69;43.76
20889;BME280;10604;51.976;7.594;2023-05-16T08:51:45;101209.03;;;17.47;42.63
20889;BME280;10604;51.976;7.594;2023-05-16T08:54:13;101215.50;;;18.11;42.46
20889;BME280;10604;51.976;7.594;2023-05-16T08:56:40;101225.34;;;18.10;41.58
20889;BME280;10604;51.976;7.594;2023-05-16T08:59:06;101218.38;;;18.72;40.87
20889;BME280;10604;51.976;7.594;2023-05-16T09:01:32;101206.34;;;19.56;40.39
20889;BME280;10604;51.976;7.594;2023-05-16T09:03:59;101201.56;;;20.19;38.64
20889;BME280;10604;51.976;7.594;2023-05-16T09:06:25;101202.34;;;19.63;37.16
20889;BME280;10604;51.976;7.594;2023-05-16T09:08:52;101208.31;;;19.82;37.92
20889;BME280;10604;51.976;7.594;2023-05-16T09:11:18;101204.69;;;20.68;35.96
20889;BME280;10604;51.976;7.594;2023-05-16T09:13:43;101212.16;;;19.78;38.45
20889;BME280;10604;51.976;7.594;2023-05-16T09:16:09;101208.91;;;18.33;40.05
20889;BME280;10604;51.976;7.594;2023-05-16T09:18:35;101208.88;;;17.50;41.27
20889;BME280;10604;51.976;7.594;2023-05-16T09:21:03;101210.88;;;17.11;41.75
20889;BME280;10604;51.976;7.594;2023-05-16T09:23:29;101205.81;;;17.58;42.16
20889;BME280;10604;51.976;7.594;2023-05-16T09:25:54;101202.13;;;18.44;39.91
20889;BME280;10604;51.976;7.594;2023-05-16T09:28:21;101200.25;;;19.68;37.91
20889;BME280;10604;51.976;7.594;2023-05-16T09:30:46;101207.78;;;20.06;38.55
20889;BME280;10604;51.976;7.594;2023-05-16T09:33:13;101209.97;;;19.85;37.51
20889;BME280;10604;51.976;7.594;2023-05-16T09:35:38;101197.28;;;20.45;37.82
20889;BME280;10604;51.976;7.594;2023-05-16T09:38:03;101195.91;;;19.81;36.73
20889;BME280;10604;51.976;7.594;2023-05-16T09:40:29;101195.97;;;18.59;39.50
20889;BME280;10604;51.976;7.594;2023-05-16T09:43:05;101205.09;;;20.06;37.80
20889;BME280;10604;51.976;7.594;2023-05-16T09:45:31;101199.16;;;19.86;36.70
20889;BME280;10604;51.976;7.594;2023-05-16T09:48:05;101197.66;;;21.21;35.58
20889;BME280;10604;51.976;7.594;2023-05-16T09:50:33;101185.69;;;20.86;35.56
20889;BME280;10604;51.976;7.594;2023-05-16T09:52:59;101196.28;;;20.60;34.73
20889;BME280;10604;51.976;7.594;2023-05-16T09:55:25;101189.25;;;19.29;37.02
20889;BME280;10604;51.976;7.594;2023-05-16T09:57:50;101193.25;;;20.24;36.70
20889;BME280;10604;51.976;7.594;2023-05-16T10:00:16;101197.50;;;21.49;35.46
20889;BME280;10604;51.976;7.594;2023-05-16T10:02:42;101193.94;;;22.63;34.38
20889;BME280;10604;51.976;7.594;2023-05-16T10:05:08;101183.13;;;23.12;32.40
20889;BME280;10604;51.976;7.594;2023-05-16T10:07:33;101191.31;;;23.11;31.79
20889;BME280;10604;51.976;7.594;2023-05-16T10:10:00;101199.00;;;21.54;33.69
20889;BME280;10604;51.976;7.594;2023-05-16T10:12:30;101181.19;;;20.45;35.31
20889;BME280;10604;51.976;7.594;2023-05-16T10:14:59;101182.34;;;20.41;36.16
20889;BME280;10604;51.976;7.594;2023-05-16T10:17:26;101185.88;;;20.42;35.72
20889;BME280;10604;51.976;7.594;2023-05-16T10:19:54;101181.94;;;20.05;35.06
20889;BME280;10604;51.976;7.594;2023-05-16T10:22:21;101183.88;;;20.17;34.59
20889;BME280;10604;51.976;7.594;2023-05-16T10:25:03;101187.44;;;21.66;33.32
20889;BME280;10604;51.976;7.594;2023-05-16T10:27:30;101178.53;;;21.53;33.46
20889;BME280;10604;51.976;7.594;2023-05-16T10:29:56;101186.34;;;20.20;35.78
20889;BME280;10604;51.976;7.594;2023-05-16T10:32:23;101181.78;;;19.34;36.91
20889;BME280;10604;51.976;7.594;2023-05-16T10:34:51;101173.34;;;20.00;36.11
20889;BME280;10604;51.976;7.594;2023-05-16T10:37:17;101181.84;;;20.20;36.26
20889;BME280;10604;51.976;7.594;2023-05-16T10:39:43;101184.06;;;20.14;36.96
20889;BME280;10604;51.976;7.594;2023-05-16T10:42:09;101184.78;;;20.73;35.95
20889;BME280;10604;51.976;7.594;2023-05-16T10:44:37;101170.81;;;21.99;35.39
20889;BME280;10604;51.976;7.594;2023-05-16T10:47:03;101181.31;;;20.70;35.04
20889;BME280;10604;51.976;7.594;2023-05-16T10:49:29;101183.41;;;19.06;37.24
20889;BME280;10604;51.976;7.594;2023-05-16T10:54:42;101187.13;;;20.08;37.67
20889;BME280;10604;51.976;7.594;2023-05-16T10:57:16;101179.97;;;21.04;35.89
20889;BME280;10604;51.976;7.594;2023-05-16T10:59:47;101182.03;;;22.54;34.10
20889;BME280;10604;51.976;7.594;2023-05-16T11:02:24;101186.53;;;22.54;33.46
20889;BME280;10604;51.976;7.594;2023-05-16T11:04:51;101183.59;;;22.20;32.36
20889;BME280;10604;51.976;7.594;2023-05-16T11:07:18;101187.91;;;23.09;32.79
20889;BME280;10604;51.976;7.594;2023-05-16T11:09:52;101180.63;;;23.57;30.95
20889;BME280;10604;51.976;7.594;2023-05-16T11:12:35;101182.19;;;22.77;32.22
20889;BME280;10604;51.976;7.594;2023-05-16T11:15:26;101179.41;;;22.78;31.20
20889;BME280;10604;51.976;7.594;2023-05-16T11:18:06;101167.88;;;22.27;33.46
20889;BME280;10604;51.976;7.594;2023-05-16T11:20:33;101170.88;;;23.43;31.64
20889;BME280;10604;51.976;7.594;2023-05-16T11:25:40;101179.63;;;24.37;30.56
20889;BME280;10604;51.976;7.594;2023-05-16T11:28:07;101171.66;;;22.97;31.22
20889;BME280;10604;51.976;7.594;2023-05-16T11:30:33;101169.81;;;22.38;32.39
20889;BME280;10604;51.976;7.594;2023-05-16T11:32:59;101175.63;;;22.68;31.06
20889;BME280;10604;51.976;7.594;2023-05-16T11:35:24;101176.56;;;22.92;30.98
20889;BME280;10604;51.976;7.594;2023-05-16T11:37:50;101188.91;;;23.19;31.06
20889;BME280;10604;51.976;7.594;2023-05-16T11:40:16;101177.88;;;20.68;32.41
20889;BME280;10604;51.976;7.594;2023-05-16T11:42:43;101186.91;;;20.11;34.63
20889;BME280;10604;51.976;7.594;2023-05-16T11:45:13;101192.84;;;19.73;36.20
20889;BME280;10604;51.976;7.594;2023-05-16T11:47:40;101181.53;;;19.08;37.53
20889;BME280;10604;51.976;7.594;2023-05-16T11:50:16;101187.97;;;19.04;37.57
20889;BME280;10604;51.976;7.594;2023-05-16T11:52:42;101191.66;;;18.56;37.64
20889;BME280;10604;51.976;7.594;2023-05-16T11:55:08;101197.00;;;18.72;38.34
20889;BME280;10604;51.976;7.594;2023-05-16T11:57:35;101200.25;;;18.46;37.92
20889;BME280;10604;51.976;7.594;2023-05-16T12:00:20;101199.91;;;18.83;38.19
20889;BME280;10604;51.976;7.594;2023-05-16T12:02:46;101205.09;;;20.20;37.14
20889;BME280;10604;51.976;7.594;2023-05-16T12:05:12;101205.44;;;21.38;34.77
20889;BME280;10604;51.976;7.594;2023-05-16T12:07:38;101206.88;;;21.17;33.13
20889;BME280;10604;51.976;7.594;2023-05-16T12:10:07;101216.91;;;21.80;32.89
20889;BME280;10604;51.976;7.594;2023-05-16T12:12:34;101211.81;;;21.63;33.52
20889;BME280;10604;51.976;7.594;2023-05-16T12:15:03;101214.94;;;22.45;32.50
20889;BME280;10604;51.976;7.594;2023-05-16T12:17:31;101209.41;;;22.72;32.26
20889;BME280;10604;51.976;7.594;2023-05-16T12:19:56;101206.78;;;23.20;31.66
20889;BME280;10604;51.976;7.594;2023-05-16T12:22:24;101208.72;;;23.88;31.04
20889;BME280;10604;51.976;7.594;2023-05-16T12:24:50;101200.16;;;23.83;30.43
20889;BME280;10604;51.976;7.594;2023-05-16T12:27:22;101191.19;;;23.36;30.02
20889;BME280;10604;51.976;7.594;2023-05-16T12:29:48;101195.06;;;24.24;29.79
20889;BME280;10604;51.976;7.594;2023-05-16T12:32:17;101209.38;;;24.02;27.72
20889;BME280;10604;51.976;7.594;2023-05-16T12:34:48;101199.16;;;23.72;27.36
20889;BME280;10604;51.976;7.594;2023-05-16T12:37:15;101195.59;;;23.37;29.54
20889;BME280;10604;51.976;7.594;2023-05-16T12:39:40;101182.16;;;22.89;28.01
20889;BME280;10604;51.976;7.594;2023-05-16T12:42:06;101198.81;;;21.44;30.18
20889;BME280;10604;51.976;7.594;2023-05-16T12:44:32;101200.88;;;20.73;31.36
20889;BME280;10604;51.976;7.594;2023-05-16T12:46:58;101206.06;;;20.47;31.21
20889;BME280;10604;51.976;7.594;2023-05-16T12:49:23;101198.03;;;20.33;31.87
20889;BME280;10604;51.976;7.594;2023-05-16T12:51:50;101202.91;;;20.41;32.84
20889;BME280;10604;51.976;7.594;2023-05-16T12:54:16;101205.81;;;20.38;32.38
20889;BME280;10604;51.976;7.594;2023-05-16T12:56:42;101201.59;;;19.75;33.41
20889;BME280;10604;51.976;7.594;2023-05-16T12:59:08;101212.13;;;19.18;34.19
20889;BME280;10604;51.976;7.594;2023-05-16T13:01:35;101208.19;;;18.94;35.00
20889;BME280;10604;51.976;7.594;2023-05-16T13:04:00;101208.00;;;18.97;35.70